createdAt,value
2023-04-01T00:01:42.433Z,98972.16
2023-04-01T00:06:44.252Z,98958.97
2023-04-01T00:11:59.706Z,98944.91
2023-04-01T00:17:07.229Z,98944.09
2023-04-01T00:22:12.470Z,98994.81
2023-04-01T00:27:14.441Z,98954.78
2023-04-01T00:32:33.343Z,98954.97
2023-04-01T00:37:50.363Z,98935.47
2023-04-01T00:42:52.014Z,98981.81
2023-04-01T00:48:07.054Z,99007.38
2023-04-01T00:53:25.049Z,99011.38
2023-04-01T00:58:33.253Z,99013.88
2023-04-01T01:03:43.286Z,98986.84
2023-04-01T01:09:23.828Z,99030.63
2023-04-01T01:15:03.099Z,99023.94
2023-04-01T01:20:32.439Z,99027.28
2023-04-01T01:26:15.027Z,99031.91
2023-04-01T01:31:59.481Z,99032.75
2023-04-01T01:37:18.417Z,99032.13
2023-04-01T01:42:30.089Z,99022.69
2023-04-01T01:47:48.607Z,99013.25
2023-04-01T01:53:07.944Z,99043.03
2023-04-01T01:58:41.871Z,99056.03
2023-04-01T02:03:45.546Z,99027.88
2023-04-01T02:08:53.136Z,99058.50
2023-04-01T02:14:02.482Z,99066.03
2023-04-01T02:19:08.556Z,99075.88
2023-04-01T02:24:17.068Z,99067.66
2023-04-01T02:29:31.238Z,99076.81
2023-04-01T02:41:03.694Z,99104.06
2023-04-01T02:46:05.247Z,99074.16
2023-04-01T02:51:07.281Z,99093.88
2023-04-01T02:56:08.822Z,99109.25
2023-04-01T03:01:11.915Z,99127.69
2023-04-01T03:06:15.593Z,99137.78
2023-04-01T03:11:20.292Z,99145.31
2023-04-01T03:16:59.099Z,99150.53
2023-04-01T03:22:00.711Z,99154.50
2023-04-01T03:27:06.405Z,99165.97
2023-04-01T03:32:13.946Z,99158.41
2023-04-01T03:37:15.806Z,99167.13
2023-04-01T03:42:37.728Z,99165.03
2023-04-01T03:48:09.608Z,99121.91
2023-04-01T03:53:12.264Z,99192.34
2023-04-01T03:58:20.611Z,99198.22
2023-04-01T04:03:22.248Z,99215.88
2023-04-01T04:09:04.100Z,99220.88
2023-04-01T04:20:46.923Z,99226.09
2023-04-01T04:25:58.709Z,99238.69
2023-04-01T04:31:01.134Z,99194.34
2023-04-01T04:41:20.631Z,99192.28
2023-04-01T04:53:17.159Z,99239.03
2023-04-01T04:58:19.237Z,99297.22
2023-04-01T05:09:03.024Z,99305.16
2023-04-01T05:14:26.832Z,99304.50
2023-04-01T05:19:43.375Z,99306.41
2023-04-01T05:25:07.478Z,99293.75
2023-04-01T05:30:07.713Z,99332.28
2023-04-01T05:40:41.495Z,99361.00
2023-04-01T05:45:43.385Z,99320.59
2023-04-01T05:50:50.664Z,99345.72
2023-04-01T05:55:54.934Z,99398.19
2023-04-01T06:01:11.268Z,99409.94
2023-04-01T06:06:24.634Z,99362.19
2023-04-01T06:11:52.418Z,99409.34
2023-04-01T06:17:49.218Z,99424.50
2023-04-01T06:23:19.390Z,99428.88
2023-04-01T06:28:42.689Z,99437.47
2023-04-01T06:34:08.467Z,99445.38
2023-04-01T06:39:28.238Z,99449.59
2023-04-01T06:45:04.809Z,99454.34
2023-04-01T06:50:22.486Z,99460.03
2023-04-01T06:55:44.294Z,99475.72
2023-04-01T07:00:49.168Z,99476.31
2023-04-01T07:05:51.540Z,99448.09
2023-04-01T07:11:12.383Z,99498.69
2023-04-01T07:16:17.051Z,99512.09
2023-04-01T07:21:32.028Z,99510.47
2023-04-01T07:26:34.799Z,99515.88
2023-04-01T07:31:45.309Z,99541.16
2023-04-01T07:36:54.536Z,99534.38
2023-04-01T07:42:40.912Z,99531.13
2023-04-01T07:48:14.337Z,99547.53
2023-04-01T07:53:39.123Z,99555.38
2023-04-01T07:58:49.553Z,99573.88
2023-04-01T08:04:19.447Z,99585.34
2023-04-01T08:09:30.360Z,99582.16
2023-04-01T08:15:01.355Z,99607.78
2023-04-01T08:20:19.431Z,99612.59
2023-04-01T08:25:26.721Z,99609.38
2023-04-01T08:30:54.976Z,99606.16
2023-04-01T08:36:17.179Z,99632.78
2023-04-01T08:41:59.638Z,99646.94
2023-04-01T08:47:25.667Z,99653.81
2023-04-01T08:52:43.151Z,99649.91
2023-04-01T08:58:27.963Z,99668.94
2023-04-01T09:03:47.232Z,99668.53
2023-04-01T09:09:21.788Z,99676.22
2023-04-01T09:14:46.156Z,99685.56
2023-04-01T09:20:21.684Z,99697.31
2023-04-01T09:25:47.497Z,99649.09
2023-04-01T09:31:21.640Z,99709.66
2023-04-01T09:36:38.325Z,99725.19
2023-04-01T09:42:01.412Z,99715.69
2023-04-01T09:47:28.024Z,99734.78
2023-04-01T09:53:01.952Z,99719.63
2023-04-01T09:58:31.042Z,99737.38
2023-04-01T10:04:09.877Z,99746.63
2023-04-01T10:09:53.873Z,99766.03
2023-04-01T10:15:25.679Z,99772.59
2023-04-01T10:20:42.238Z,99777.00
2023-04-01T10:25:45.147Z,99790.19
2023-04-01T10:31:04.892Z,99784.81
2023-04-01T10:36:49.213Z,99787.81
2023-04-01T10:42:14.085Z,99794.75
2023-04-01T10:47:58.876Z,99804.19
2023-04-01T10:53:09.561Z,99812.16
2023-04-01T10:58:37.123Z,99811.84
2023-04-01T11:03:39.222Z,99818.53
2023-04-01T11:09:22.083Z,99831.25
2023-04-01T11:14:23.592Z,99834.81
2023-04-01T11:19:40.034Z,99832.41
2023-04-01T11:24:41.590Z,99844.63
2023-04-01T11:30:29.593Z,99850.75
2023-04-01T11:47:57.443Z,99888.06
2023-04-01T11:53:24.117Z,99895.56
2023-04-01T11:58:47.199Z,99899.97
2023-04-01T12:04:30.544Z,99906.84
2023-04-01T12:09:32.466Z,99922.63
2023-04-01T12:14:44.440Z,99932.88
2023-04-01T12:20:21.741Z,99917.78
2023-04-01T12:25:43.514Z,99951.22
2023-04-01T12:31:08.781Z,99958.25
2023-04-01T12:36:36.315Z,99961.94
2023-04-01T12:42:05.072Z,99974.25
2023-04-01T12:47:27.750Z,99950.63
2023-04-01T12:59:10.137Z,99993.91
2023-04-01T13:05:09.234Z,100015.44
2023-04-01T13:22:10.133Z,100047.84
2023-04-01T13:27:47.573Z,100057.69
2023-04-01T13:33:18.241Z,100068.22
2023-04-01T13:50:47.143Z,100092.56
2023-04-01T13:56:03.889Z,100041.59
2023-04-01T14:08:16.408Z,100098.28
2023-04-01T14:31:56.753Z,100154.41
2023-04-01T14:53:28.060Z,100189.88
2023-04-01T16:51:36.394Z,100476.50
2023-04-01T17:14:23.417Z,100506.31
2023-04-01T17:26:23.756Z,100499.97
2023-04-01T17:32:28.217Z,100546.44
2023-04-01T17:37:54.657Z,100560.34
2023-04-01T17:43:17.342Z,100573.16
2023-04-01T17:48:42.859Z,100576.34
2023-04-01T17:53:49.185Z,100596.66
2023-04-01T17:59:10.639Z,100614.47
2023-04-01T18:04:37.443Z,100626.78
2023-04-01T18:10:19.914Z,100637.84
2023-04-01T18:22:42.490Z,100641.53
2023-04-01T18:27:48.467Z,100689.13
2023-04-01T18:33:25.217Z,100691.31
2023-04-01T18:38:42.948Z,100714.28
2023-04-01T18:44:01.386Z,100730.00
2023-04-01T18:49:22.182Z,100727.75
2023-04-01T18:55:00.989Z,100751.59
2023-04-01T19:00:17.332Z,100760.47
2023-04-01T19:05:32.852Z,100770.97
2023-04-01T19:10:37.159Z,100778.13
2023-04-01T19:15:48.469Z,100806.72
2023-04-01T19:21:31.441Z,100823.00
2023-04-01T19:26:42.204Z,100843.44
2023-04-01T19:32:17.331Z,100844.00
2023-04-01T19:37:26.995Z,100856.88
2023-04-01T19:42:42.559Z,100880.97
2023-04-01T19:48:21.378Z,100893.84
2023-04-01T19:53:34.940Z,100899.69
2023-04-01T19:59:02.033Z,100901.84
2023-04-01T20:04:13.880Z,100923.00
2023-04-01T20:09:46.567Z,100952.25
2023-04-01T20:14:52.110Z,100942.84
2023-04-01T20:19:56.504Z,100970.66
2023-04-01T20:25:06.770Z,100968.94
2023-04-01T20:30:38.481Z,100979.22
2023-04-01T20:35:48.811Z,100991.75
2023-04-01T20:41:28.677Z,101012.16
2023-04-01T20:46:57.974Z,101014.44
2023-04-01T20:52:14.635Z,101035.09
2023-04-01T20:57:24.170Z,101043.94
2023-04-01T21:02:57.741Z,100988.69
2023-04-01T21:08:07.933Z,101051.00
2023-04-01T21:13:53.816Z,101053.66
2023-04-01T21:19:06.182Z,101074.81
2023-04-01T21:24:45.089Z,101090.63
2023-04-01T21:30:20.713Z,101100.22
2023-04-01T21:35:48.637Z,101114.34
2023-04-01T21:41:13.931Z,101133.16
2023-04-01T21:46:21.347Z,101146.69
2023-04-01T21:52:03.139Z,101126.66
2023-04-01T21:57:46.089Z,101160.56
2023-04-01T22:03:16.390Z,101168.22
2023-04-01T22:08:37.598Z,101156.13
2023-04-01T22:14:29.123Z,101185.16
2023-04-01T22:19:47.763Z,101205.84
2023-04-01T22:25:24.498Z,101219.69
2023-04-01T22:30:39.885Z,101128.66
2023-04-01T22:36:18.287Z,101204.63
2023-04-01T22:41:49.991Z,101246.91
2023-04-01T22:47:40.357Z,101231.22
2023-04-01T22:52:48.103Z,101259.25
2023-04-01T22:58:02.450Z,101261.22
2023-04-01T23:03:22.675Z,101285.97
2023-04-01T23:08:33.105Z,101292.00
2023-04-01T23:13:49.250Z,101285.47
2023-04-01T23:19:31.265Z,101303.19
2023-04-01T23:25:01.857Z,101323.00
2023-04-01T23:30:51.475Z,101333.22
2023-04-01T23:35:57.745Z,101287.84
2023-04-01T23:40:59.700Z,101350.59
2023-04-01T23:46:07.115Z,101294.00
2023-04-01T23:51:17.609Z,101371.75
2023-04-01T23:56:57.494Z,101333.22
